Time;durP1;ratioP1;P1;durP2;ratioP2;P2;SDS_P1;SDS_P2;PMS_P1;PMS_P2;Temp;Humidity;BMP_temperature;BMP_pressure;BME280_temperature;BME280_humidity;BME280_pressure;Samples;Min_cycle;Max_cycle;Signal;HPM_P1;HPM_P2
2022/01/17 00:02:07;;;;;;;89.65;37.65;;;-2.10;99.90;;;;;;4957136;28;20054;-79
2022/01/17 00:04:33;;;;;;;;;;;-2.10;99.90;;;;;;4960720;28;20078;-81
2022/01/17 00:07:00;;;;;;;97.22;35.92;;;-2.00;99.90;;;;;;4979497;28;19969;-81
2022/01/17 00:09:27;;;;;;;;;;;-2.00;99.90;;;;;;4980021;28;20034;-81
2022/01/17 00:11:53;;;;;;;96.97;37.88;;;-2.10;99.90;;;;;;4979955;28;19910;-80
2022/01/17 00:14:23;;;;;;;87.35;37.00;;;-2.10;99.90;;;;;;4979360;28;20035;-82
2022/01/17 00:17:03;;;;;;;105.13;40.67;;;-2.10;99.90;;;;;;4979670;28;20031;-81
2022/01/17 00:19:37;;;;;;;99.28;39.70;;;-2.10;99.90;;;;;;4977903;28;20034;-81
2022/01/17 00:22:04;;;;;;;84.25;37.78;;;-2.00;99.90;;;;;;4995557;28;20050;-80
2022/01/17 00:24:30;;;;;;;100.70;40.20;;;-2.10;99.90;;;;;;4995122;28;20027;-81
2022/01/17 00:26:56;;;;;;;90.20;38.47;;;-2.10;99.90;;;;;;4978633;28;20110;-82
2022/01/17 00:29:21;;;;;;;;;;;-2.00;99.90;;;;;;4975199;28;20190;-79
2022/01/17 00:31:47;;;;;;;105.25;42.35;;;-2.00;99.90;;;;;;4975010;28;20445;-80
2022/01/17 00:34:13;;;;;;;;;;;-1.90;99.90;;;;;;4974433;28;20031;-78
2022/01/17 00:36:38;;;;;;;102.28;43.40;;;-1.80;99.90;;;;;;4956266;28;19910;-78
2022/01/17 00:39:04;;;;;;;;;;;-1.80;99.90;;;;;;4956516;28;20086;-78
2022/01/17 00:41:30;;;;;;;99.88;41.08;;;-1.80;99.90;;;;;;4955995;28;19978;-78
2022/01/17 00:43:55;;;;;;;;;;;-1.70;99.90;;;;;;4956199;28;20053;-78
2022/01/17 00:46:21;;;;;;;94.15;40.90;;;-1.80;99.90;;;;;;4956191;28;19917;-78
2022/01/17 00:48:47;;;;;;;;;;;-1.80;99.90;;;;;;4956197;28;20043;-79
2022/01/17 00:51:12;;;;;;;98.88;40.40;;;-1.80;99.90;;;;;;4956546;28;19914;-79
2022/01/17 00:53:40;;;;;;;;;;;-1.90;99.90;;;;;;4956432;28;20034;-79
2022/01/17 00:56:06;;;;;;;95.32;37.92;;;-1.90;99.90;;;;;;4973875;28;19920;-78
2022/01/17 00:58:33;;;;;;;87.35;36.53;;;-1.90;99.90;;;;;;4955738;28;20027;-78
2022/01/17 01:00:59;;;;;;;64.85;30.60;;;-1.80;99.90;;;;;;4974252;28;20034;-79
2022/01/17 01:03:25;;;;;;;67.32;32.03;;;-1.60;99.90;;;;;;4956800;28;20062;-78
2022/01/17 01:05:50;;;;;;;;;;;-1.50;99.90;;;;;;4958621;28;20027;-77
2022/01/17 01:08:16;;;;;;;64.22;29.17;;;-1.30;99.90;;;;;;4953458;28;20013;-78
2022/01/17 01:10:43;;;;;;;60.17;28.80;;;-1.00;99.90;;;;;;4974724;28;20061;-79
2022/01/17 01:13:09;;;;;;;57.10;28.52;;;-0.90;99.90;;;;;;4975448;28;20495;-79
2022/01/17 01:18:37;;;;;;;62.72;30.50;;;-0.90;99.90;;;;;;4989619;28;20098;-80
2022/01/17 01:21:17;;;;;;;64.50;31.30;;;-0.80;99.90;;;;;;4988926;28;20049;-80
2022/01/17 01:29:11;;;;;;;85.80;36.20;;;-1.10;99.90;;;;;;4975201;28;20061;-80
2022/01/17 01:31:45;;;;;;;;;;;-1.20;99.90;;;;;;4958490;28;20035;-80
2022/01/17 01:34:16;;;;;;;77.60;34.30;;;-1.30;99.90;;;;;;4958486;28;19906;-78
2022/01/17 01:36:42;;;;;;;75.18;34.03;;;-1.40;99.90;;;;;;4957855;28;20034;-80
2022/01/17 01:39:08;;;;;;;;;;;-1.40;99.90;;;;;;4975962;28;20030;-79
2022/01/17 01:41:43;;;;;;;72.53;32.63;;;-1.40;99.90;;;;;;4960952;28;19906;-79
2022/01/17 01:44:22;;;;;;;69.47;32.55;;;-1.30;99.90;;;;;;4959424;28;20131;-79
2022/01/17 01:46:49;;;;;;;71.80;32.60;;;-1.30;99.90;;;;;;4959601;28;20027;-80
2022/01/17 01:49:16;;;;;;;110.95;45.80;;;-1.20;99.90;;;;;;4973768;28;20519;-81
2022/01/17 01:51:43;;;;;;;111.78;48.28;;;-1.10;99.90;;;;;;4956788;28;20046;-80
2022/01/17 01:54:09;;;;;;;98.30;44.78;;;-1.20;99.90;;;;;;4957807;28;20038;-81
2022/01/17 01:56:41;;;;;;;68.57;33.35;;;-1.10;99.90;;;;;;4956774;28;20023;-79
2022/01/17 01:59:07;;;;;;;65.35;30.50;;;-1.10;99.90;;;;;;4973670;28;20027;-80
2022/01/17 02:01:33;;;;;;;;;;;-1.10;99.90;;;;;;4973767;28;20511;-80
2022/01/17 02:03:59;;;;;;;74.55;34.25;;;-1.10;99.90;;;;;;4956401;28;19921;-80
2022/01/17 02:06:25;;;;;;;81.20;38.38;;;-1.20;99.90;;;;;;4975229;28;20042;-80
2022/01/17 02:08:51;;;;;;;;;;;-1.20;99.90;;;;;;4974329;28;20035;-79
2022/01/17 02:11:17;;;;;;;61.00;28.70;;;-1.20;99.90;;;;;;4974207;28;19910;-79
2022/01/17 02:13:42;;;;;;;;;;;-1.10;99.90;;;;;;4959434;28;20034;-80
2022/01/17 02:16:11;;;;;;;50.83;25.10;;;-1.00;99.90;;;;;;4961840;28;20245;-80
2022/01/17 02:18:41;;;;;;;44.38;23.40;;;-0.90;99.90;;;;;;4963667;28;20023;-80
2022/01/17 02:21:20;;;;;;;44.90;24.65;;;-0.80;99.90;;;;;;4985802;28;20050;-81
2022/01/17 02:23:48;;;;;;;53.42;27.48;;;-0.70;99.90;;;;;;4985901;28;20479;-81
2022/01/17 02:26:16;;;;;;;45.33;24.70;;;-0.70;99.90;;;;;;4968872;28;20031;-79
2022/01/17 02:28:50;;;;;;;49.33;25.20;;;-0.60;99.90;;;;;;4962994;28;20059;-79
2022/01/17 02:31:17;;;;;;;49.17;25.17;;;-0.60;99.90;;;;;;4966819;28;20038;-79
2022/01/17 02:33:44;;;;;;;45.00;23.58;;;-0.60;99.90;;;;;;4962424;28;20110;-80
2022/01/17 02:36:10;;;;;;;49.28;24.83;;;-0.50;99.90;;;;;;4982149;28;20034;-80
2022/01/17 02:38:39;;;;;;;68.88;33.20;;;-0.60;99.90;;;;;;4990134;28;20050;-80
2022/01/17 02:41:04;;;;;;;51.30;25.23;;;-0.60;99.90;;;;;;4985878;28;20050;-79
2022/01/17 02:43:31;;;;;;;;;;;-0.50;99.90;;;;;;4982304;28;20118;-80
2022/01/17 02:46:42;;;;;;;38.15;19.85;;;-0.60;99.90;;;;;;4963845;28;19910;-80
2022/01/17 02:48:43;;;;;;;34.72;18.60;;;-0.50;99.90;;;;;;4973441;28;20047;-80
2022/01/17 02:51:11;;;;;;;;;;;-0.40;99.90;;;;;;4965545;28;20035;-80
2022/01/17 02:53:40;;;;;;;32.00;17.20;;;-0.20;99.90;;;;;;4964293;28;19952;-80
2022/01/17 02:56:07;;;;;;;36.00;18.38;;;-0.20;99.90;;;;;;4964081;28;20483;-80
2022/01/17 02:58:34;;;;;;;36.03;17.80;;;0.00;99.90;;;;;;4963607;28;20027;-80
2022/01/17 03:01:05;;;;;;;29.00;16.55;;;0.10;99.90;;;;;;4964829;28;20030;-79
2022/01/17 03:03:31;;;;;;;32.63;16.60;;;0.10;99.90;;;;;;4982724;28;20019;-79
2022/01/17 03:05:57;;;;;;;;;;;0.20;99.90;;;;;;4983319;28;20534;-79
2022/01/17 03:08:31;;;;;;;30.20;16.08;;;0.30;99.90;;;;;;4982905;28;19921;-76
2022/01/17 03:11:01;;;;;;;29.15;15.55;;;0.40;99.90;;;;;;4963011;28;20058;-79
2022/01/17 03:13:33;;;;;;;25.88;15.27;;;0.40;99.90;;;;;;4981804;28;20027;-78
2022/01/17 03:16:02;;;;;;;26.05;15.10;;;0.40;99.90;;;;;;4964313;28;20440;-77
2022/01/17 03:18:29;;;;;;;27.88;15.02;;;0.50;99.90;;;;;;4983304;28;20575;-78
2022/01/17 03:20:56;;;;;;;26.83;14.70;;;0.50;99.90;;;;;;4983343;28;20052;-78
2022/01/17 03:23:22;;;;;;;27.20;14.63;;;0.60;99.90;;;;;;4968096;28;20035;-78
2022/01/17 03:25:48;;;;;;;;;;;0.60;99.90;;;;;;4982011;28;20050;-78
2022/01/17 03:28:14;;;;;;;23.98;13.88;;;0.60;99.90;;;;;;4958743;28;19922;-77
2022/01/17 03:30:40;;;;;;;;;;;0.60;99.90;;;;;;4959440;28;20038;-78
2022/01/17 03:33:09;;;;;;;27.33;14.55;;;0.60;99.90;;;;;;4960545;28;20394;-78
2022/01/17 03:35:38;;;;;;;26.98;14.55;;;0.70;99.90;;;;;;4960234;28;20946;-78
2022/01/17 03:38:13;;;;;;;29.70;15.57;;;0.70;99.90;;;;;;4959906;28;20027;-79
2022/01/17 03:40:39;;;;;;;27.53;15.13;;;0.70;99.90;;;;;;4973189;28;20038;-78
2022/01/17 03:43:05;;;;;;;;;;;0.70;99.90;;;;;;4959373;28;20254;-77
2022/01/17 03:45:31;;;;;;;23.40;13.50;;;0.70;99.90;;;;;;4981121;28;19916;-79
2022/01/17 03:47:57;;;;;;;;;;;0.70;99.90;;;;;;4968523;28;20057;-79
2022/01/17 03:50:25;;;;;;;24.42;14.35;;;0.60;99.90;;;;;;4968726;28;19910;-80
2022/01/17 03:52:51;;;;;;;23.52;13.82;;;0.70;99.90;;;;;;4965508;28;20029;-79
2022/01/17 03:55:18;;;;;;;;;;;0.70;99.90;;;;;;4966182;28;20039;-77
2022/01/17 03:57:44;;;;;;;23.38;12.38;;;0.70;99.90;;;;;;4964744;28;19958;-79
2022/01/17 04:00:15;;;;;;;;;;;0.70;99.90;;;;;;4963334;28;20027;-79
2022/01/17 04:02:41;;;;;;;22.52;13.02;;;0.70;99.90;;;;;;4965870;28;19912;-78
2022/01/17 04:05:08;;;;;;;21.40;12.57;;;0.70;99.90;;;;;;4980544;28;20082;-78
2022/01/17 04:07:34;;;;;;;25.85;13.73;;;0.80;99.90;;;;;;4980208;28;20335;-78
2022/01/17 04:09:59;;;;;;;;;;;0.80;99.90;;;;;;4968478;28;20074;-79
2022/01/17 04:12:25;;;;;;;22.13;12.40;;;0.90;99.90;;;;;;4957862;28;20385;-77
2022/01/17 04:14:54;;;;;;;;;;;0.80;99.90;;;;;;4957950;28;20082;-77
2022/01/17 04:17:23;;;;;;;21.63;12.23;;;0.90;99.90;;;;;;4956858;28;19910;-78
2022/01/17 04:19:52;;;;;;;19.83;11.80;;;0.90;99.90;;;;;;4974257;28;20022;-78
2022/01/17 04:22:18;;;;;;;24.50;13.30;;;1.00;99.90;;;;;;4974112;28;20026;-78
2022/01/17 04:24:43;;;;;;;;;;;1.00;99.90;;;;;;4957809;28;20071;-79
2022/01/17 04:27:09;;;;;;;21.00;12.93;;;1.00;99.90;;;;;;4958122;28;19913;-77
2022/01/17 04:29:38;;;;;;;;;;;1.00;99.90;;;;;;4957879;28;20507;-79
2022/01/17 04:32:04;;;;;;;26.35;14.35;;;1.00;99.90;;;;;;4976637;28;19906;-79
2022/01/17 04:34:32;;;;;;;;;;;1.00;99.90;;;;;;4961900;28;20538;-79
2022/01/17 04:36:58;;;;;;;26.98;13.82;;;1.10;99.90;;;;;;4959868;28;19941;-78
2022/01/17 04:39:23;;;;;;;;;;;1.00;99.90;;;;;;4959660;28;20121;-78
2022/01/17 04:41:49;;;;;;;21.17;12.27;;;1.00;99.90;;;;;;4975990;28;19906;-77
2022/01/17 04:46:59;;;;;;;19.63;12.10;;;1.00;99.90;;;;;;4975303;28;19913;-79
2022/01/17 04:49:24;;;;;;;;;;;1.00;99.90;;;;;;4958957;28;20030;-78
2022/01/17 04:51:53;;;;;;;21.95;12.20;;;1.00;99.90;;;;;;4958052;28;19910;-77
2022/01/17 04:54:39;;;;;;;20.02;11.93;;;1.00;99.90;;;;;;4978172;28;20488;-79
2022/01/17 04:57:05;;;;;;;21.77;13.02;;;1.10;99.90;;;;;;4981084;28;20035;-77
2022/01/17 04:59:30;;;;;;;;;;;1.10;99.90;;;;;;4972617;28;20023;-76
2022/01/17 05:01:56;;;;;;;24.10;14.00;;;1.10;99.90;;;;;;4955586;28;20290;-77
2022/01/17 05:04:21;;;;;;;;;;;1.20;99.90;;;;;;4973735;28;20023;-78
2022/01/17 05:06:47;;;;;;;19.75;10.85;;;1.30;99.90;;;;;;4956633;28;20401;-78
2022/01/17 05:09:13;;;;;;;;;;;1.30;99.90;;;;;;4957885;28;20422;-77
2022/01/17 05:11:40;;;;;;;19.60;11.02;;;1.30;99.90;;;;;;4974610;28;20008;-78
2022/01/17 05:14:06;;;;;;;20.38;11.27;;;1.30;99.90;;;;;;4957027;28;20447;-78
2022/01/17 05:16:40;;;;;;;;;;;1.40;99.90;;;;;;4956746;28;20030;-77
2022/01/17 05:21:50;;;;;;;18.38;10.45;;;1.50;99.90;;;;;;4974052;28;20042;-77
2022/01/17 05:24:15;;;;;;;;;;;1.60;99.90;;;;;;4957027;28;20031;-79
2022/01/17 05:26:41;;;;;;;17.13;10.00;;;1.70;99.90;;;;;;4957156;28;20675;-78
2022/01/17 05:29:07;;;;;;;;;;;1.80;99.90;;;;;;4964630;28;20215;-77
2022/01/17 05:31:32;;;;;;;15.65;9.35;;;1.90;99.90;;;;;;4975456;28;19920;-77
2022/01/17 05:33:58;;;;;;;18.10;10.35;;;1.90;99.90;;;;;;4977041;28;20038;-77
2022/01/17 05:36:24;;;;;;;;;;;2.00;99.90;;;;;;4971299;28;20027;-77
2022/01/17 05:38:52;;;;;;;15.75;9.50;;;2.00;99.90;;;;;;4973361;28;20393;-76
2022/01/17 05:41:18;;;;;;;16.27;9.88;;;2.00;99.90;;;;;;4976331;28;20026;-76
2022/01/17 05:43:44;;;;;;;17.77;10.90;;;2.10;99.90;;;;;;4970736;28;20035;-77
2022/01/17 05:46:09;;;;;;;;;;;2.10;99.90;;;;;;4974833;28;20038;-78
2022/01/17 05:48:35;;;;;;;16.67;9.63;;;2.10;99.90;;;;;;4971876;28;19918;-78
2022/01/17 05:51:01;;;;;;;16.40;9.52;;;2.20;99.90;;;;;;4970923;28;20026;-78
2022/01/17 05:53:26;;;;;;;;;;;2.20;99.90;;;;;;4979913;28;20483;-77
2022/01/17 05:55:54;;;;;;;15.80;9.48;;;2.30;99.90;;;;;;4979063;28;19914;-77
2022/01/17 05:58:20;;;;;;;14.57;8.90;;;2.20;99.90;;;;;;4978305;28;20117;-78
2022/01/17 06:00:45;;;;;;;;;;;2.30;99.90;;;;;;4980872;28;20046;-78
2022/01/17 06:03:11;;;;;;;17.00;8.98;;;2.30;99.90;;;;;;4979347;28;19993;-77
2022/01/17 06:05:37;;;;;;;;;;;2.30;99.90;;;;;;4979302;28;20471;-77
2022/01/17 06:08:04;;;;;;;16.70;9.07;;;2.30;99.90;;;;;;4988490;28;19914;-79
2022/01/17 06:10:29;;;;;;;14.88;9.30;;;2.30;99.90;;;;;;4987742;28;20515;-79
2022/01/17 06:12:55;;;;;;;;;;;2.30;99.90;;;;;;4990127;28;20027;-80
2022/01/17 06:15:21;;;;;;;14.55;9.02;;;2.40;99.90;;;;;;4991473;28;20316;-80
2022/01/17 06:17:47;;;;;;;;;;;2.50;99.90;;;;;;4990905;28;20042;-79
2022/01/17 06:20:13;;;;;;;18.13;8.30;;;2.60;99.90;;;;;;4990009;28;20141;-80
2022/01/17 06:22:40;;;;;;;12.98;8.23;;;2.70;99.90;;;;;;4988586;28;20023;-78
2022/01/17 06:25:06;;;;;;;12.23;7.80;;;2.60;99.90;;;;;;4990860;28;20027;-79
2022/01/17 06:27:32;;;;;;;;;;;2.70;99.90;;;;;;4987553;28;20045;-78
2022/01/17 06:29:59;;;;;;;14.48;7.13;;;2.70;99.90;;;;;;4983900;28;19929;-79
2022/01/17 06:32:26;;;;;;;14.50;7.78;;;2.70;99.90;;;;;;4969746;28;20106;-80
2022/01/17 06:34:52;;;;;;;14.70;7.60;;;2.70;99.90;;;;;;4989247;28;20023;-77
2022/01/17 06:37:18;;;;;;;13.07;7.30;;;2.70;99.90;;;;;;4987787;28;20027;-79
2022/01/17 06:39:44;;;;;;;;;;;2.70;99.90;;;;;;4982496;28;20361;-76
2022/01/17 06:42:10;;;;;;;13.48;7.45;;;2.70;99.90;;;;;;4981306;28;20000;-77
2022/01/17 06:44:35;;;;;;;;;;;2.70;99.90;;;;;;4982823;28;20118;-77
2022/01/17 06:47:01;;;;;;;12.85;7.25;;;2.80;99.90;;;;;;4980782;28;20446;-79
2022/01/17 06:49:27;;;;;;;;;;;2.80;99.90;;;;;;4981090;28;20110;-79
2022/01/17 06:51:52;;;;;;;12.65;7.97;;;2.80;99.90;;;;;;4979604;28;19917;-77
2022/01/17 06:54:18;;;;;;;;;;;2.90;99.90;;;;;;4978642;28;20034;-77
2022/01/17 06:56:44;;;;;;;14.40;6.47;;;3.00;99.90;;;;;;4977823;28;19965;-77
2022/01/17 06:59:14;;;;;;;14.93;8.07;;;3.00;99.90;;;;;;4978314;28;20026;-80
2022/01/17 07:01:40;;;;;;;16.38;9.63;;;3.10;99.90;;;;;;4978872;28;20037;-79
2022/01/17 07:04:07;;;;;;;20.25;10.93;;;3.20;99.90;;;;;;4979516;28;20027;-79
2022/01/17 07:06:33;;;;;;;18.75;9.85;;;3.30;99.90;;;;;;4977643;28;20037;-79
2022/01/17 07:08:58;;;;;;;;;;;3.40;99.90;;;;;;4978105;28;20109;-80
2022/01/17 07:11:26;;;;;;;19.63;10.40;;;3.50;99.90;;;;;;4987509;28;19910;-79
2022/01/17 07:13:52;;;;;;;18.52;11.25;;;3.60;99.90;;;;;;4975092;28;20514;-81
2022/01/17 07:16:19;;;;;;;16.23;9.07;;;3.60;99.90;;;;;;4976178;28;20094;-78
2022/01/17 07:18:45;;;;;;;22.58;10.25;;;3.80;99.90;;;;;;4976479;28;20043;-80
2022/01/17 07:21:10;;;;;;;;;;;3.90;99.90;;;;;;4974267;28;20030;-80
2022/01/17 07:23:36;;;;;;;15.80;8.82;;;4.00;99.90;;;;;;4975375;28;20020;-80
2022/01/17 07:26:02;;;;;;;;;;;4.00;99.90;;;;;;4975268;28;20484;-79
2022/01/17 07:28:28;;;;;;;12.18;6.93;;;4.10;99.90;;;;;;4975999;28;19977;-79
2022/01/17 07:30:53;;;;;;;;;;;4.30;99.90;;;;;;4960205;28;20483;-79
2022/01/17 07:33:21;;;;;;;13.85;6.50;;;4.20;99.90;;;;;;4959355;28;19906;-80
2022/01/17 07:35:48;;;;;;;12.65;7.30;;;4.30;99.90;;;;;;4977807;28;20408;-80
2022/01/17 07:38:15;;;;;;;11.20;6.30;;;4.40;99.90;;;;;;4959339;28;20546;-80
2022/01/17 07:40:43;;;;;;;12.45;7.15;;;4.30;99.90;;;;;;4958854;28;20031;-80
2022/01/17 07:43:12;;;;;;;10.63;6.25;;;4.40;99.90;;;;;;4976033;28;20041;-80
2022/01/17 07:45:46;;;;;;;10.90;6.22;;;4.40;99.90;;;;;;4958561;28;20027;-79
2022/01/17 07:48:43;;;;;;;10.63;6.47;;;4.40;99.90;;;;;;4976316;28;20034;-79
2022/01/17 07:50:58;;;;;;;10.40;5.70;;;4.50;99.90;;;;;;4976142;28;20046;-80
2022/01/17 07:53:23;;;;;;;10.13;6.38;;;4.50;99.90;;;;;;4976703;28;20049;-79
2022/01/17 07:55:49;;;;;;;;;;;4.50;99.90;;;;;;4976982;28;20125;-80
2022/01/17 07:58:15;;;;;;;12.07;5.57;;;4.50;99.90;;;;;;4958787;28;19913;-80
2022/01/17 08:00:40;;;;;;;10.23;5.80;;;4.50;99.90;;;;;;4976307;28;20121;-79
2022/01/17 08:03:06;;;;;;;;;;;4.60;99.90;;;;;;4959299;28;20094;-80
2022/01/17 08:05:33;;;;;;;11.52;5.57;;;4.60;99.90;;;;;;4959356;28;19913;-79
2022/01/17 08:07:59;;;;;;;8.88;5.03;;;4.50;99.90;;;;;;4959294;28;20062;-80
2022/01/17 08:10:24;;;;;;;;;;;4.40;99.90;;;;;;4959795;28;20042;-80
2022/01/17 08:12:50;;;;;;;12.30;5.80;;;4.40;99.90;;;;;;4958779;28;19913;-80
2022/01/17 08:15:16;;;;;;;;;;;4.40;99.90;;;;;;4976740;28;20031;-80
2022/01/17 08:17:44;;;;;;;8.60;5.13;;;4.30;99.90;;;;;;4959693;28;19912;-79
2022/01/17 08:20:10;;;;;;;9.75;5.78;;;4.40;99.90;;;;;;4976696;28;20065;-80
2022/01/17 08:22:35;;;;;;;;;;;4.30;99.90;;;;;;4959685;28;20411;-80
2022/01/17 08:25:01;;;;;;;14.20;5.70;;;4.30;99.90;;;;;;4976775;28;20013;-80
2022/01/17 08:27:27;;;;;;;11.30;6.20;;;4.30;99.90;;;;;;4976870;28;20476;-79
2022/01/17 08:29:53;;;;;;;;;;;4.30;99.90;;;;;;4976837;28;20053;-80
2022/01/17 08:32:19;;;;;;;11.80;5.30;;;4.30;99.90;;;;;;4959402;28;20291;-79
2022/01/17 08:34:44;;;;;;;8.82;5.00;;;4.30;99.90;;;;;;4960482;28;20042;-82
2022/01/17 08:37:10;;;;;;;;;;;4.30;99.90;;;;;;4960566;28;20054;-80
2022/01/17 08:39:36;;;;;;;9.73;5.43;;;4.30;99.90;;;;;;4979000;28;19906;-81
2022/01/17 08:42:10;;;;;;;9.70;5.30;;;4.30;99.90;;;;;;4985457;28;20019;-80
2022/01/17 08:44:36;;;;;;;8.85;5.18;;;4.30;99.90;;;;;;4977741;28;20101;-79
2022/01/17 08:47:02;;;;;;;8.90;5.05;;;4.30;99.90;;;;;;4960184;28;20073;-79
2022/01/17 08:49:28;;;;;;;;;;;4.30;99.90;;;;;;4960816;28;20639;-79
2022/01/17 08:51:54;;;;;;;12.05;5.68;;;4.30;99.90;;;;;;4960482;28;19994;-80
2022/01/17 08:54:19;;;;;;;8.15;4.50;;;4.30;99.90;;;;;;4960929;28;20173;-80
2022/01/17 08:56:45;;;;;;;;;;;4.40;99.90;;;;;;4961288;28;20506;-80
2022/01/17 08:59:11;;;;;;;9.75;5.15;;;4.50;99.90;;;;;;4978876;28;19910;-80
2022/01/17 09:01:37;;;;;;;11.32;5.18;;;4.50;99.90;;;;;;4961392;28;20448;-80
2022/01/17 09:04:02;;;;;;;;;;;4.60;99.90;;;;;;4961819;28;20042;-80
2022/01/17 09:06:28;;;;;;;6.82;4.30;;;4.60;99.90;;;;;;4977821;28;20028;-80
2022/01/17 09:08:54;;;;;;;8.88;5.07;;;4.60;99.90;;;;;;4978036;28;20604;-79
2022/01/17 09:11:20;;;;;;;;;;;4.50;99.90;;;;;;4960655;28;20046;-80
2022/01/17 09:13:47;;;;;;;10.52;4.55;;;4.50;99.90;;;;;;4977995;28;19906;-80
2022/01/17 09:16:13;;;;;;;12.82;5.28;;;4.50;99.90;;;;;;4960508;28;20058;-80
2022/01/17 09:18:39;;;;;;;;;;;4.50;99.90;;;;;;4978790;28;20031;-80
2022/01/17 09:21:05;;;;;;;8.48;4.90;;;4.50;99.90;;;;;;4978613;28;20378;-79
2022/01/17 09:23:31;;;;;;;9.65;5.95;;;4.60;99.90;;;;;;4979585;28;20029;-80
2022/01/17 09:25:57;;;;;;;8.93;5.15;;;4.70;99.90;;;;;;4963457;28;20030;-79
2022/01/17 09:28:23;;;;;;;;;;;4.80;99.90;;;;;;4972197;28;20059;-80
2022/01/17 09:30:50;;;;;;;13.53;6.97;;;4.70;99.90;;;;;;4967367;28;19914;-80
2022/01/17 09:33:16;;;;;;;12.85;7.30;;;4.60;99.90;;;;;;4959317;28;20390;-80
2022/01/17 09:35:41;;;;;;;;;;;4.60;99.90;;;;;;4959279;28;20066;-79
2022/01/17 09:38:07;;;;;;;10.13;5.97;;;4.50;99.90;;;;;;4975150;28;19918;-81
2022/01/17 09:40:33;;;;;;;;;;;4.50;99.90;;;;;;4975836;28;20117;-80
2022/01/17 09:43:02;;;;;;;10.07;5.37;;;4.50;99.90;;;;;;4975226;28;19906;-79
2022/01/17 09:45:28;;;;;;;9.77;5.43;;;4.50;99.90;;;;;;4958198;28;20073;-79
2022/01/17 09:47:54;;;;;;;16.65;11.80;;;4.50;99.90;;;;;;4958570;28;20042;-80
2022/01/17 09:50:22;;;;;;;;;;;4.40;99.90;;;;;;4958833;28;20031;-80
2022/01/17 09:52:52;;;;;;;15.45;8.45;;;4.50;99.90;;;;;;4958455;28;19964;-80
2022/01/17 09:55:22;;;;;;;11.32;6.40;;;4.50;99.90;;;;;;4958328;28;20444;-79
2022/01/17 09:57:52;;;;;;;10.95;6.13;;;4.40;99.90;;;;;;4958067;28;20026;-80
2022/01/17 10:00:24;;;;;;;17.77;7.38;;;4.50;99.90;;;;;;4957759;28;20058;-80
2022/01/17 10:02:50;;;;;;;15.45;7.40;;;4.70;99.90;;;;;;4957743;28;20515;-80
2022/01/17 10:05:16;;;;;;;10.90;6.13;;;4.70;99.90;;;;;;4956756;28;20030;-80
2022/01/17 10:08:04;;;;;;;25.85;13.15;;;4.70;99.90;;;;;;4957414;28;20451;-80
2022/01/17 10:10:57;;;;;;;11.30;6.38;;;4.70;99.90;;;;;;4962054;28;20415;-81
2022/01/17 10:13:27;;;;;;;18.88;9.38;;;4.70;99.90;;;;;;4977583;28;20031;-79
2022/01/17 10:15:58;;;;;;;19.67;10.20;;;4.70;99.90;;;;;;4957584;28;20027;-80
2022/01/17 10:18:30;;;;;;;13.30;5.47;;;4.70;99.90;;;;;;4974437;28;20023;-81
2022/01/17 10:21:01;;;;;;;7.65;4.38;;;4.80;99.90;;;;;;4957775;28;20403;-79
2022/01/17 10:24:15;;;;;;;15.00;7.53;;;4.80;99.90;;;;;;4957166;28;20023;-80
2022/01/17 10:34:53;;;;;;;8.98;4.88;;;5.30;99.90;;;;;;4975029;28;20107;-80
2022/01/17 10:37:24;;;;;;;12.15;5.40;;;5.40;99.90;;;;;;4957610;28;20065;-81
2022/01/17 10:40:01;;;;;;;11.25;7.25;;;5.40;99.90;;;;;;4958270;28;20058;-79
2022/01/17 10:42:30;;;;;;;9.25;5.50;;;5.50;99.90;;;;;;4961146;28;20392;-80
2022/01/17 10:45:06;;;;;;;7.68;4.60;;;5.50;99.90;;;;;;4961657;28;20495;-80
2022/01/17 10:47:35;;;;;;;11.25;5.10;;;5.50;99.90;;;;;;4980168;28;20027;-80
2022/01/17 10:50:10;;;;;;;6.32;4.38;;;5.40;99.90;;;;;;4961570;28;20054;-80
2022/01/17 10:52:42;;;;;;;7.22;3.75;;;5.40;99.90;;;;;;4979183;28;20023;-80
2022/01/17 10:55:22;;;;;;;6.55;4.38;;;5.30;99.90;;;;;;4979397;28;20023;-80
2022/01/17 10:57:51;;;;;;;8.85;4.72;;;5.30;99.90;;;;;;4960773;28;20027;-79
2022/01/17 11:00:38;;;;;;;9.23;4.05;;;5.40;99.90;;;;;;4961145;28;20590;-80
2022/01/17 11:03:06;;;;;;;;;;;5.30;99.90;;;;;;4975818;28;20034;-80
2022/01/17 11:05:32;;;;;;;8.70;3.92;;;5.40;99.90;;;;;;4960879;28;19965;-79
2022/01/17 11:08:01;;;;;;;7.43;4.38;;;5.30;99.90;;;;;;4961013;28;20038;-80
2022/01/17 11:10:39;;;;;;;5.57;3.22;;;5.40;99.90;;;;;;4960978;28;20058;-78
2022/01/17 11:13:08;;;;;;;7.90;3.63;;;5.40;99.90;;;;;;4958638;28;20458;-80
2022/01/17 11:15:36;;;;;;;8.80;4.30;;;5.30;99.90;;;;;;4963086;28;20035;-80
2022/01/17 11:18:10;;;;;;;7.10;3.85;;;5.30;99.90;;;;;;4978728;28;20026;-79
2022/01/17 11:20:36;;;;;;;6.80;4.15;;;5.30;99.90;;;;;;4979222;28;20102;-80
2022/01/17 11:23:04;;;;;;;7.30;4.00;;;5.40;99.90;;;;;;4961140;28;20066;-79
2022/01/17 11:25:36;;;;;;;8.38;4.68;;;5.40;99.90;;;;;;4961101;28;20027;-80
2022/01/17 11:28:04;;;;;;;8.63;3.95;;;5.40;99.90;;;;;;4961693;28;20578;-79
2022/01/17 11:30:34;;;;;;;6.85;4.10;;;5.40;99.90;;;;;;4941606;29;20051;-80
2022/01/17 11:33:03;;;;;;;6.60;3.55;;;5.40;99.90;;;;;;4958050;28;20027;-79
2022/01/17 11:35:31;;;;;;;6.10;3.63;;;5.40;99.90;;;;;;4941528;29;20037;-79
2022/01/17 11:37:59;;;;;;;9.18;3.70;;;5.40;99.90;;;;;;4941339;29;20122;-81
2022/01/17 11:40:37;;;;;;;6.15;3.35;;;5.40;99.90;;;;;;4941718;29;20119;-81
2022/01/17 11:43:35;;;;;;;4.88;3.05;;;5.50;99.90;;;;;;4947839;28;20062;-79
2022/01/17 11:46:18;;;;;;;7.22;3.70;;;5.60;99.90;;;;;;4941177;29;20027;-81
2022/01/17 11:48:58;;;;;;;8.48;3.83;;;5.60;99.90;;;;;;4958564;28;20058;-79
2022/01/17 11:51:34;;;;;;;6.22;3.53;;;5.70;99.90;;;;;;4957751;28;20034;-80
2022/01/17 11:54:28;;;;;;;6.75;3.45;;;5.60;99.90;;;;;;4941306;29;20571;-80
2022/01/17 11:57:02;;;;;;;7.82;3.55;;;5.60;99.90;;;;;;4941437;29;20035;-80
2022/01/17 11:59:31;;;;;;;8.07;3.58;;;5.60;99.90;;;;;;4958805;29;20513;-80
2022/01/17 12:02:17;;;;;;;8.25;3.72;;;5.60;99.90;;;;;;4941567;29;20050;-79
2022/01/17 12:05:11;;;;;;;9.07;3.90;;;5.60;99.90;;;;;;4943445;29;20031;-81
2022/01/17 12:07:48;;;;;;;5.90;3.33;;;5.70;99.90;;;;;;4941718;29;20389;-80
2022/01/17 12:10:20;;;;;;;9.88;3.80;;;5.60;99.90;;;;;;4947970;29;20031;-81
2022/01/17 12:13:34;;;;;;;7.13;4.10;;;5.70;99.90;;;;;;4951032;29;20063;-81
2022/01/17 12:19:03;;;;;;;10.13;6.15;;;5.60;99.90;;;;;;4956928;29;20023;-80
2022/01/17 12:21:35;;;;;;;8.20;5.05;;;5.70;99.90;;;;;;4957316;29;20031;-79
2022/01/17 12:24:19;;;;;;;15.80;9.80;;;5.70;99.90;;;;;;4938952;29;20114;-80
2022/01/17 12:27:12;;;;;;;18.58;7.75;;;5.60;99.90;;;;;;4955711;29;20118;-79
2022/01/17 12:29:57;;;;;;;23.00;12.88;;;5.50;99.90;;;;;;4969142;28;20058;-80
2022/01/17 12:32:26;;;;;;;9.48;5.15;;;5.60;99.90;;;;;;4958846;28;20031;-80
2022/01/17 12:34:53;;;;;;;11.07;5.18;;;5.60;99.90;;;;;;4958857;28;20042;-80
2022/01/17 12:37:42;;;;;;;8.98;5.60;;;5.60;99.90;;;;;;4976117;28;20035;-80
2022/01/17 12:40:24;;;;;;;7.47;4.20;;;5.70;99.90;;;;;;4957881;28;20035;-80
2022/01/17 12:43:00;;;;;;;7.68;3.90;;;5.60;99.90;;;;;;4957947;28;20054;-80
2022/01/17 12:45:33;;;;;;;9.13;4.47;;;5.50;99.90;;;;;;4975865;28;20042;-80
2022/01/17 12:48:01;;;;;;;9.50;4.85;;;5.50;99.90;;;;;;4975581;28;20444;-80
2022/01/17 12:50:32;;;;;;;5.65;3.85;;;5.50;99.90;;;;;;4975848;28;20038;-78
2022/01/17 12:52:59;;;;;;;7.20;4.35;;;5.50;99.90;;;;;;4976393;28;20019;-79
2022/01/17 12:55:31;;;;;;;8.30;3.00;;;5.40;99.90;;;;;;4958221;28;20049;-80
2022/01/17 12:57:56;;;;;;;7.97;3.50;;;5.50;99.90;;;;;;4975722;28;20511;-80
2022/01/17 13:00:26;;;;;;;7.00;3.33;;;5.50;99.90;;;;;;4957960;28;20146;-80
2022/01/17 13:02:54;;;;;;;5.72;3.42;;;5.60;99.90;;;;;;4958319;28;20042;-80
2022/01/17 13:05:28;;;;;;;7.90;3.85;;;5.60;99.90;;;;;;4974998;28;20593;-79
2022/01/17 13:07:54;;;;;;;6.65;3.78;;;5.60;99.90;;;;;;4958071;28;20081;-79
2022/01/17 13:10:20;;;;;;;5.97;3.83;;;5.60;99.90;;;;;;4977209;28;20027;-80
2022/01/17 13:12:50;;;;;;;6.20;3.70;;;5.70;99.90;;;;;;4966245;28;20026;-78
2022/01/17 13:15:15;;;;;;;10.23;3.47;;;5.70;99.90;;;;;;4978621;28;20051;-79
2022/01/17 13:17:41;;;;;;;6.65;3.05;;;5.80;99.90;;;;;;4975271;28;20403;-79
2022/01/17 13:20:07;;;;;;;;;;;5.90;99.90;;;;;;4957281;28;20037;-79
2022/01/17 13:22:42;;;;;;;4.80;2.83;;;5.80;99.90;;;;;;4975987;28;19968;-79
2022/01/17 13:25:08;;;;;;;5.97;3.28;;;5.80;99.90;;;;;;4956932;28;20042;-79
2022/01/17 13:27:37;;;;;;;4.53;3.20;;;5.80;99.90;;;;;;4957434;28;20027;-79
2022/01/17 13:30:11;;;;;;;6.13;2.95;;;5.80;99.90;;;;;;4958068;28;20364;-79
2022/01/17 13:32:38;;;;;;;6.35;3.22;;;5.80;99.90;;;;;;4975072;28;20035;-80
2022/01/17 13:35:09;;;;;;;5.68;2.88;;;5.80;99.90;;;;;;4958358;28;20136;-80
2022/01/17 13:37:35;;;;;;;5.93;2.97;;;5.90;99.90;;;;;;4957156;28;20039;-79
2022/01/17 13:40:10;;;;;;;;;;;5.80;99.90;;;;;;4958594;28;20027;-79